sensor_id;sensor_type;location;lat;lon;timestamp;P1;durP1;ratioP1;P2;durP2;ratioP2
39264;SDS011;42646;51.910;7.724;2023-03-20T00:02:03;27.20;;;14.02;;
39264;SDS011;42646;51.910;7.724;2023-03-20T00:04:34;28.17;;;13.93;;
39264;SDS011;42646;51.910;7.724;2023-03-20T00:07:01;25.38;;;13.02;;
39264;SDS011;42646;51.910;7.724;2023-03-20T00:09:29;24.83;;;13.25;;
39264;SDS011;42646;51.910;7.724;2023-03-20T00:11:59;25.33;;;12.98;;
39264;SDS011;42646;51.910;7.724;2023-03-20T00:14:27;24.75;;;12.85;;
39264;SDS011;42646;51.910;7.724;2023-03-20T00:16:55;24.33;;;13.38;;
39264;SDS011;42646;51.910;7.724;2023-03-20T00:19:23;25.85;;;13.82;;
39264;SDS011;42646;51.910;7.724;2023-03-20T00:21:54;24.80;;;13.35;;
39264;SDS011;42646;51.910;7.724;2023-03-20T00:24:22;25.38;;;14.07;;
39264;SDS011;42646;51.910;7.724;2023-03-20T00:26:51;25.27;;;14.15;;
39264;SDS011;42646;51.910;7.724;2023-03-20T00:29:20;29.60;;;14.23;;
39264;SDS011;42646;51.910;7.724;2023-03-20T00:31:49;26.40;;;14.50;;
39264;SDS011;42646;51.910;7.724;2023-03-20T00:34:18;25.52;;;13.15;;
39264;SDS011;42646;51.910;7.724;2023-03-20T00:36:50;24.00;;;13.35;;
39264;SDS011;42646;51.910;7.724;2023-03-20T00:39:20;25.63;;;13.63;;
39264;SDS011;42646;51.910;7.724;2023-03-20T00:41:49;25.08;;;13.88;;
39264;SDS011;42646;51.910;7.724;2023-03-20T00:44:20;27.02;;;14.75;;
39264;SDS011;42646;51.910;7.724;2023-03-20T00:46:52;30.38;;;16.13;;
39264;SDS011;42646;51.910;7.724;2023-03-20T00:49:21;27.17;;;14.95;;
39264;SDS011;42646;51.910;7.724;2023-03-20T00:51:54;27.50;;;15.10;;
39264;SDS011;42646;51.910;7.724;2023-03-20T00:54:25;32.50;;;16.65;;
39264;SDS011;42646;51.910;7.724;2023-03-20T00:56:54;33.60;;;17.38;;
39264;SDS011;42646;51.910;7.724;2023-03-20T00:59:25;35.75;;;18.20;;
39264;SDS011;42646;51.910;7.724;2023-03-20T01:04:27;34.92;;;17.88;;
39264;SDS011;42646;51.910;7.724;2023-03-20T01:07:00;35.20;;;17.90;;
39264;SDS011;42646;51.910;7.724;2023-03-20T01:09:29;34.35;;;18.35;;
39264;SDS011;42646;51.910;7.724;2023-03-20T01:11:57;35.15;;;18.75;;
39264;SDS011;42646;51.910;7.724;2023-03-20T01:14:25;36.55;;;18.35;;
39264;SDS011;42646;51.910;7.724;2023-03-20T01:16:53;35.78;;;19.02;;
39264;SDS011;42646;51.910;7.724;2023-03-20T01:19:21;36.40;;;19.52;;
39264;SDS011;42646;51.910;7.724;2023-03-20T01:21:50;32.70;;;18.83;;
39264;SDS011;42646;51.910;7.724;2023-03-20T01:24:18;38.00;;;19.05;;
39264;SDS011;42646;51.910;7.724;2023-03-20T01:26:48;39.42;;;21.92;;
39264;SDS011;42646;51.910;7.724;2023-03-20T01:29:18;42.50;;;23.37;;
39264;SDS011;42646;51.910;7.724;2023-03-20T01:31:48;38.40;;;22.08;;
39264;SDS011;42646;51.910;7.724;2023-03-20T01:34:19;47.50;;;24.45;;
39264;SDS011;42646;51.910;7.724;2023-03-20T01:36:47;41.65;;;23.83;;
39264;SDS011;42646;51.910;7.724;2023-03-20T01:39:17;45.17;;;24.55;;
39264;SDS011;42646;51.910;7.724;2023-03-20T01:41:49;41.15;;;24.83;;
39264;SDS011;42646;51.910;7.724;2023-03-20T01:44:20;45.10;;;25.58;;
39264;SDS011;42646;51.910;7.724;2023-03-20T01:46:54;45.78;;;25.30;;
39264;SDS011;42646;51.910;7.724;2023-03-20T01:52:30;44.40;;;24.35;;
39264;SDS011;42646;51.910;7.724;2023-03-20T01:54:58;45.35;;;25.67;;
39264;SDS011;42646;51.910;7.724;2023-03-20T01:57:27;43.92;;;24.38;;
39264;SDS011;42646;51.910;7.724;2023-03-20T01:59:56;45.47;;;24.88;;
39264;SDS011;42646;51.910;7.724;2023-03-20T02:02:40;42.72;;;25.05;;
39264;SDS011;42646;51.910;7.724;2023-03-20T02:05:12;45.00;;;25.50;;
39264;SDS011;42646;51.910;7.724;2023-03-20T02:07:44;45.97;;;25.20;;
39264;SDS011;42646;51.910;7.724;2023-03-20T02:10:17;45.17;;;25.20;;
39264;SDS011;42646;51.910;7.724;2023-03-20T02:12:57;42.00;;;24.52;;
39264;SDS011;42646;51.910;7.724;2023-03-20T02:15:31;42.25;;;24.05;;
39264;SDS011;42646;51.910;7.724;2023-03-20T02:18:13;37.67;;;22.60;;
39264;SDS011;42646;51.910;7.724;2023-03-20T02:20:43;40.15;;;22.27;;
39264;SDS011;42646;51.910;7.724;2023-03-20T02:23:30;38.63;;;22.58;;
39264;SDS011;42646;51.910;7.724;2023-03-20T02:26:24;36.92;;;21.90;;
39264;SDS011;42646;51.910;7.724;2023-03-20T02:32:26;41.17;;;22.42;;
39264;SDS011;42646;51.910;7.724;2023-03-20T02:38:18;35.63;;;20.88;;
39264;SDS011;42646;51.910;7.724;2023-03-20T02:40:57;40.05;;;23.30;;
39264;SDS011;42646;51.910;7.724;2023-03-20T02:43:32;39.53;;;23.48;;
39264;SDS011;42646;51.910;7.724;2023-03-20T02:46:10;35.53;;;20.95;;
39264;SDS011;42646;51.910;7.724;2023-03-20T02:48:44;38.97;;;23.30;;
39264;SDS011;42646;51.910;7.724;2023-03-20T02:51:21;36.85;;;22.27;;
39264;SDS011;42646;51.910;7.724;2023-03-20T02:54:02;35.78;;;21.90;;
39264;SDS011;42646;51.910;7.724;2023-03-20T02:56:39;35.17;;;21.30;;
39264;SDS011;42646;51.910;7.724;2023-03-20T02:59:19;35.97;;;21.63;;
39264;SDS011;42646;51.910;7.724;2023-03-20T03:01:55;32.95;;;19.83;;
39264;SDS011;42646;51.910;7.724;2023-03-20T03:04:30;36.50;;;21.65;;
39264;SDS011;42646;51.910;7.724;2023-03-20T03:07:02;36.08;;;21.02;;
39264;SDS011;42646;51.910;7.724;2023-03-20T03:09:35;35.25;;;21.45;;
39264;SDS011;42646;51.910;7.724;2023-03-20T03:12:09;30.63;;;18.55;;
39264;SDS011;42646;51.910;7.724;2023-03-20T03:14:42;30.33;;;18.65;;
39264;SDS011;42646;51.910;7.724;2023-03-20T03:17:14;31.00;;;19.77;;
39264;SDS011;42646;51.910;7.724;2023-03-20T03:19:44;30.58;;;18.77;;
39264;SDS011;42646;51.910;7.724;2023-03-20T03:22:17;28.98;;;18.50;;
39264;SDS011;42646;51.910;7.724;2023-03-20T03:24:47;29.83;;;18.60;;
39264;SDS011;42646;51.910;7.724;2023-03-20T03:27:18;28.33;;;17.08;;
39264;SDS011;42646;51.910;7.724;2023-03-20T03:29:49;27.35;;;17.42;;
39264;SDS011;42646;51.910;7.724;2023-03-20T03:32:24;27.33;;;16.75;;
39264;SDS011;42646;51.910;7.724;2023-03-20T03:34:56;26.98;;;17.00;;
39264;SDS011;42646;51.910;7.724;2023-03-20T03:37:30;28.10;;;17.67;;
39264;SDS011;42646;51.910;7.724;2023-03-20T03:40:10;30.00;;;18.02;;
39264;SDS011;42646;51.910;7.724;2023-03-20T03:42:48;28.85;;;19.02;;
39264;SDS011;42646;51.910;7.724;2023-03-20T03:45:23;29.13;;;19.20;;
39264;SDS011;42646;51.910;7.724;2023-03-20T03:47:57;29.13;;;18.75;;
39264;SDS011;42646;51.910;7.724;2023-03-20T03:50:31;31.40;;;18.90;;
39264;SDS011;42646;51.910;7.724;2023-03-20T03:53:05;30.48;;;18.92;;
39264;SDS011;42646;51.910;7.724;2023-03-20T03:55:40;29.25;;;18.30;;
39264;SDS011;42646;51.910;7.724;2023-03-20T03:58:12;31.77;;;19.92;;
39264;SDS011;42646;51.910;7.724;2023-03-20T04:00:45;30.45;;;20.55;;
39264;SDS011;42646;51.910;7.724;2023-03-20T04:03:16;28.50;;;18.33;;
39264;SDS011;42646;51.910;7.724;2023-03-20T04:05:47;27.73;;;18.88;;
39264;SDS011;42646;51.910;7.724;2023-03-20T04:08:19;28.83;;;18.30;;
39264;SDS011;42646;51.910;7.724;2023-03-20T04:10:48;29.50;;;18.63;;
39264;SDS011;42646;51.910;7.724;2023-03-20T04:13:16;29.75;;;18.55;;
39264;SDS011;42646;51.910;7.724;2023-03-20T04:15:45;26.15;;;17.30;;
39264;SDS011;42646;51.910;7.724;2023-03-20T04:18:14;27.67;;;18.40;;
39264;SDS011;42646;51.910;7.724;2023-03-20T04:20:45;29.00;;;18.15;;
39264;SDS011;42646;51.910;7.724;2023-03-20T04:23:14;27.33;;;17.17;;
39264;SDS011;42646;51.910;7.724;2023-03-20T04:25:44;30.05;;;18.35;;
39264;SDS011;42646;51.910;7.724;2023-03-20T04:28:13;25.88;;;16.67;;
39264;SDS011;42646;51.910;7.724;2023-03-20T04:31:01;26.48;;;17.10;;
39264;SDS011;42646;51.910;7.724;2023-03-20T04:33:58;26.65;;;16.63;;
39264;SDS011;42646;51.910;7.724;2023-03-20T04:36:40;28.15;;;16.73;;
39264;SDS011;42646;51.910;7.724;2023-03-20T04:39:12;26.38;;;17.17;;
39264;SDS011;42646;51.910;7.724;2023-03-20T04:41:39;25.83;;;16.85;;
39264;SDS011;42646;51.910;7.724;2023-03-20T04:44:09;25.25;;;15.57;;
39264;SDS011;42646;51.910;7.724;2023-03-20T04:46:40;24.52;;;16.00;;
39264;SDS011;42646;51.910;7.724;2023-03-20T04:49:13;26.20;;;16.75;;
39264;SDS011;42646;51.910;7.724;2023-03-20T04:51:41;23.63;;;15.75;;
39264;SDS011;42646;51.910;7.724;2023-03-20T04:54:12;21.20;;;14.75;;
39264;SDS011;42646;51.910;7.724;2023-03-20T04:56:41;23.38;;;15.38;;
39264;SDS011;42646;51.910;7.724;2023-03-20T04:59:16;24.23;;;14.63;;
39264;SDS011;42646;51.910;7.724;2023-03-20T05:01:44;23.77;;;14.70;;
39264;SDS011;42646;51.910;7.724;2023-03-20T05:04:12;23.67;;;15.18;;
39264;SDS011;42646;51.910;7.724;2023-03-20T05:06:40;23.00;;;15.02;;
39264;SDS011;42646;51.910;7.724;2023-03-20T05:09:10;22.20;;;14.73;;
39264;SDS011;42646;51.910;7.724;2023-03-20T05:11:41;24.58;;;15.50;;
39264;SDS011;42646;51.910;7.724;2023-03-20T05:14:34;23.48;;;15.02;;
39264;SDS011;42646;51.910;7.724;2023-03-20T05:17:31;20.95;;;14.15;;
39264;SDS011;42646;51.910;7.724;2023-03-20T05:20:22;23.20;;;14.57;;
39264;SDS011;42646;51.910;7.724;2023-03-20T05:23:00;22.83;;;14.43;;
39264;SDS011;42646;51.910;7.724;2023-03-20T05:25:57;21.90;;;13.13;;
39264;SDS011;42646;51.910;7.724;2023-03-20T05:28:33;21.40;;;13.63;;
39264;SDS011;42646;51.910;7.724;2023-03-20T05:31:27;20.60;;;12.80;;
39264;SDS011;42646;51.910;7.724;2023-03-20T05:34:02;20.63;;;12.85;;
39264;SDS011;42646;51.910;7.724;2023-03-20T05:36:52;23.02;;;13.88;;
39264;SDS011;42646;51.910;7.724;2023-03-20T05:39:30;20.92;;;13.10;;
39264;SDS011;42646;51.910;7.724;2023-03-20T05:42:14;19.27;;;12.07;;
39264;SDS011;42646;51.910;7.724;2023-03-20T05:44:54;20.55;;;12.70;;
39264;SDS011;42646;51.910;7.724;2023-03-20T05:47:41;20.23;;;13.10;;
39264;SDS011;42646;51.910;7.724;2023-03-20T05:50:34;18.85;;;12.55;;
39264;SDS011;42646;51.910;7.724;2023-03-20T05:53:37;19.42;;;12.48;;
39264;SDS011;42646;51.910;7.724;2023-03-20T05:56:29;20.23;;;12.85;;
39264;SDS011;42646;51.910;7.724;2023-03-20T05:59:22;17.17;;;11.20;;
39264;SDS011;42646;51.910;7.724;2023-03-20T06:02:15;18.40;;;11.68;;
39264;SDS011;42646;51.910;7.724;2023-03-20T06:04:53;19.08;;;11.65;;
39264;SDS011;42646;51.910;7.724;2023-03-20T06:07:26;19.85;;;12.57;;
39264;SDS011;42646;51.910;7.724;2023-03-20T06:10:00;17.90;;;11.80;;
39264;SDS011;42646;51.910;7.724;2023-03-20T06:12:29;17.40;;;11.55;;
39264;SDS011;42646;51.910;7.724;2023-03-20T06:14:59;15.98;;;11.10;;
39264;SDS011;42646;51.910;7.724;2023-03-20T06:17:30;17.67;;;11.10;;
39264;SDS011;42646;51.910;7.724;2023-03-20T06:20:03;16.17;;;10.02;;
39264;SDS011;42646;51.910;7.724;2023-03-20T06:22:32;16.20;;;10.55;;
39264;SDS011;42646;51.910;7.724;2023-03-20T06:25:00;16.27;;;10.93;;
39264;SDS011;42646;51.910;7.724;2023-03-20T06:27:34;15.35;;;9.88;;
39264;SDS011;42646;51.910;7.724;2023-03-20T06:30:02;15.48;;;9.88;;
39264;SDS011;42646;51.910;7.724;2023-03-20T06:32:34;15.77;;;9.45;;
39264;SDS011;42646;51.910;7.724;2023-03-20T06:35:09;13.23;;;8.88;;
39264;SDS011;42646;51.910;7.724;2023-03-20T06:37:43;13.43;;;8.63;;
39264;SDS011;42646;51.910;7.724;2023-03-20T06:40:18;13.57;;;8.82;;
39264;SDS011;42646;51.910;7.724;2023-03-20T06:42:47;12.88;;;8.55;;
39264;SDS011;42646;51.910;7.724;2023-03-20T06:45:16;13.13;;;8.48;;
39264;SDS011;42646;51.910;7.724;2023-03-20T06:47:50;12.63;;;7.93;;
39264;SDS011;42646;51.910;7.724;2023-03-20T06:50:22;12.93;;;9.18;;
39264;SDS011;42646;51.910;7.724;2023-03-20T06:52:50;14.02;;;9.13;;
39264;SDS011;42646;51.910;7.724;2023-03-20T06:55:42;14.90;;;8.77;;
39264;SDS011;42646;51.910;7.724;2023-03-20T06:58:12;15.07;;;9.05;;
39264;SDS011;42646;51.910;7.724;2023-03-20T07:00:44;13.25;;;8.60;;
39264;SDS011;42646;51.910;7.724;2023-03-20T07:03:13;12.60;;;8.70;;
39264;SDS011;42646;51.910;7.724;2023-03-20T07:05:44;13.27;;;8.13;;
39264;SDS011;42646;51.910;7.724;2023-03-20T07:10:43;13.27;;;8.15;;
39264;SDS011;42646;51.910;7.724;2023-03-20T07:13:14;13.52;;;7.43;;
39264;SDS011;42646;51.910;7.724;2023-03-20T07:15:42;12.68;;;8.13;;
39264;SDS011;42646;51.910;7.724;2023-03-20T07:18:31;12.18;;;7.88;;
39264;SDS011;42646;51.910;7.724;2023-03-20T07:21:01;12.98;;;7.53;;
39264;SDS011;42646;51.910;7.724;2023-03-20T07:23:33;14.35;;;8.15;;
39264;SDS011;42646;51.910;7.724;2023-03-20T07:26:03;16.70;;;8.35;;
39264;SDS011;42646;51.910;7.724;2023-03-20T07:28:33;11.65;;;7.35;;
39264;SDS011;42646;51.910;7.724;2023-03-20T07:31:18;13.18;;;7.53;;
39264;SDS011;42646;51.910;7.724;2023-03-20T07:33:57;14.02;;;7.90;;
39264;SDS011;42646;51.910;7.724;2023-03-20T07:36:26;14.88;;;7.82;;
39264;SDS011;42646;51.910;7.724;2023-03-20T07:38:54;11.60;;;7.57;;
39264;SDS011;42646;51.910;7.724;2023-03-20T07:41:23;12.48;;;7.78;;
39264;SDS011;42646;51.910;7.724;2023-03-20T07:44:00;12.35;;;7.95;;
39264;SDS011;42646;51.910;7.724;2023-03-20T07:46:44;14.02;;;7.78;;
39264;SDS011;42646;51.910;7.724;2023-03-20T07:49:14;12.57;;;7.68;;
39264;SDS011;42646;51.910;7.724;2023-03-20T07:51:45;12.63;;;7.80;;
39264;SDS011;42646;51.910;7.724;2023-03-20T07:54:39;13.93;;;7.97;;
39264;SDS011;42646;51.910;7.724;2023-03-20T07:57:07;13.95;;;8.60;;
39264;SDS011;42646;51.910;7.724;2023-03-20T07:59:34;14.25;;;8.15;;
39264;SDS011;42646;51.910;7.724;2023-03-20T08:02:02;13.80;;;8.55;;
39264;SDS011;42646;51.910;7.724;2023-03-20T08:04:30;15.05;;;8.57;;
39264;SDS011;42646;51.910;7.724;2023-03-20T08:06:59;12.20;;;8.13;;
39264;SDS011;42646;51.910;7.724;2023-03-20T08:09:27;13.43;;;8.20;;
39264;SDS011;42646;51.910;7.724;2023-03-20T08:11:55;13.98;;;8.95;;
39264;SDS011;42646;51.910;7.724;2023-03-20T08:14:24;12.80;;;8.30;;
39264;SDS011;42646;51.910;7.724;2023-03-20T08:16:52;14.02;;;9.07;;
39264;SDS011;42646;51.910;7.724;2023-03-20T08:19:47;13.38;;;8.32;;
39264;SDS011;42646;51.910;7.724;2023-03-20T08:22:18;17.40;;;9.45;;
39264;SDS011;42646;51.910;7.724;2023-03-20T08:24:47;18.67;;;9.75;;
39264;SDS011;42646;51.910;7.724;2023-03-20T08:27:14;13.68;;;8.98;;
39264;SDS011;42646;51.910;7.724;2023-03-20T08:29:42;14.48;;;8.98;;
39264;SDS011;42646;51.910;7.724;2023-03-20T08:32:10;15.57;;;9.50;;
39264;SDS011;42646;51.910;7.724;2023-03-20T08:34:38;17.20;;;9.13;;
39264;SDS011;42646;51.910;7.724;2023-03-20T08:37:05;15.35;;;9.15;;
39264;SDS011;42646;51.910;7.724;2023-03-20T08:39:35;16.80;;;8.88;;
39264;SDS011;42646;51.910;7.724;2023-03-20T08:42:04;15.20;;;9.27;;
39264;SDS011;42646;51.910;7.724;2023-03-20T08:44:33;13.52;;;8.45;;
39264;SDS011;42646;51.910;7.724;2023-03-20T08:47:01;14.73;;;8.90;;
39264;SDS011;42646;51.910;7.724;2023-03-20T08:49:28;15.35;;;8.60;;
39264;SDS011;42646;51.910;7.724;2023-03-20T08:51:57;18.02;;;9.23;;
39264;SDS011;42646;51.910;7.724;2023-03-20T08:54:26;14.98;;;7.68;;
39264;SDS011;42646;51.910;7.724;2023-03-20T08:56:55;13.70;;;7.28;;
39264;SDS011;42646;51.910;7.724;2023-03-20T08:59:23;12.52;;;7.10;;
39264;SDS011;42646;51.910;7.724;2023-03-20T09:01:51;12.27;;;6.18;;
39264;SDS011;42646;51.910;7.724;2023-03-20T09:04:19;12.82;;;6.07;;
39264;SDS011;42646;51.910;7.724;2023-03-20T09:06:48;10.88;;;5.85;;
39264;SDS011;42646;51.910;7.724;2023-03-20T09:09:17;12.93;;;5.80;;
39264;SDS011;42646;51.910;7.724;2023-03-20T09:11:46;11.60;;;5.72;;
39264;SDS011;42646;51.910;7.724;2023-03-20T09:14:15;9.18;;;5.30;;
39264;SDS011;42646;51.910;7.724;2023-03-20T09:16:43;12.55;;;5.85;;
39264;SDS011;42646;51.910;7.724;2023-03-20T09:19:11;9.63;;;5.10;;
39264;SDS011;42646;51.910;7.724;2023-03-20T09:21:38;10.77;;;5.30;;
39264;SDS011;42646;51.910;7.724;2023-03-20T09:24:06;8.50;;;5.03;;
39264;SDS011;42646;51.910;7.724;2023-03-20T09:26:35;9.80;;;4.70;;
39264;SDS011;42646;51.910;7.724;2023-03-20T09:29:02;7.90;;;4.53;;
39264;SDS011;42646;51.910;7.724;2023-03-20T09:31:32;7.90;;;4.25;;
39264;SDS011;42646;51.910;7.724;2023-03-20T09:34:00;9.52;;;4.32;;
39264;SDS011;42646;51.910;7.724;2023-03-20T09:36:28;10.18;;;3.95;;
39264;SDS011;42646;51.910;7.724;2023-03-20T09:38:57;10.30;;;4.45;;
39264;SDS011;42646;51.910;7.724;2023-03-20T09:41:25;7.75;;;4.00;;
39264;SDS011;42646;51.910;7.724;2023-03-20T09:44:04;7.00;;;3.28;;
39264;SDS011;42646;51.910;7.724;2023-03-20T09:46:45;10.00;;;3.65;;
39264;SDS011;42646;51.910;7.724;2023-03-20T09:49:44;6.85;;;3.70;;
39264;SDS011;42646;51.910;7.724;2023-03-20T09:52:23;10.52;;;4.28;;
39264;SDS011;42646;51.910;7.724;2023-03-20T09:54:55;5.55;;;2.92;;
39264;SDS011;42646;51.910;7.724;2023-03-20T09:59:56;6.88;;;3.22;;
39264;SDS011;42646;51.910;7.724;2023-03-20T10:02:41;9.05;;;3.58;;
39264;SDS011;42646;51.910;7.724;2023-03-20T10:05:16;8.43;;;3.83;;
39264;SDS011;42646;51.910;7.724;2023-03-20T10:07:48;8.80;;;3.22;;
39264;SDS011;42646;51.910;7.724;2023-03-20T10:10:17;9.23;;;3.33;;
39264;SDS011;42646;51.910;7.724;2023-03-20T10:12:48;7.90;;;3.17;;
39264;SDS011;42646;51.910;7.724;2023-03-20T10:15:27;10.70;;;2.90;;
39264;SDS011;42646;51.910;7.724;2023-03-20T10:18:12;5.65;;;2.65;;
39264;SDS011;42646;51.910;7.724;2023-03-20T10:20:50;6.15;;;2.60;;
39264;SDS011;42646;51.910;7.724;2023-03-20T10:23:25;5.97;;;2.90;;
39264;SDS011;42646;51.910;7.724;2023-03-20T10:26:01;7.53;;;3.00;;
39264;SDS011;42646;51.910;7.724;2023-03-20T10:28:33;8.23;;;3.15;;
39264;SDS011;42646;51.910;7.724;2023-03-20T10:31:15;6.63;;;2.80;;
39264;SDS011;42646;51.910;7.724;2023-03-20T10:33:58;9.55;;;3.35;;
39264;SDS011;42646;51.910;7.724;2023-03-20T10:36:40;7.60;;;3.30;;
39264;SDS011;42646;51.910;7.724;2023-03-20T10:39:19;7.60;;;2.88;;
39264;SDS011;42646;51.910;7.724;2023-03-20T10:42:02;7.78;;;2.92;;
39264;SDS011;42646;51.910;7.724;2023-03-20T10:44:37;6.10;;;2.45;;
39264;SDS011;42646;51.910;7.724;2023-03-20T10:47:08;7.00;;;2.80;;
39264;SDS011;42646;51.910;7.724;2023-03-20T10:49:42;6.18;;;2.80;;
39264;SDS011;42646;51.910;7.724;2023-03-20T10:52:18;5.63;;;3.10;;
39264;SDS011;42646;51.910;7.724;2023-03-20T10:54:51;4.63;;;2.42;;
39264;SDS011;42646;51.910;7.724;2023-03-20T10:57:23;5.18;;;2.40;;
39264;SDS011;42646;51.910;7.724;2023-03-20T10:59:53;6.00;;;2.17;;
39264;SDS011;42646;51.910;7.724;2023-03-20T11:02:24;5.57;;;2.20;;
39264;SDS011;42646;51.910;7.724;2023-03-20T11:04:55;4.88;;;2.22;;
39264;SDS011;42646;51.910;7.724;2023-03-20T11:07:26;6.32;;;2.50;;
39264;SDS011;42646;51.910;7.724;2023-03-20T11:10:07;4.88;;;2.13;;
39264;SDS011;42646;51.910;7.724;2023-03-20T11:12:37;6.60;;;2.20;;
39264;SDS011;42646;51.910;7.724;2023-03-20T11:15:13;5.55;;;2.22;;
39264;SDS011;42646;51.910;7.724;2023-03-20T11:17:54;4.15;;;2.13;;
39264;SDS011;42646;51.910;7.724;2023-03-20T11:20:25;6.60;;;2.25;;
39264;SDS011;42646;51.910;7.724;2023-03-20T11:23:02;5.70;;;2.40;;
39264;SDS011;42646;51.910;7.724;2023-03-20T11:25:31;5.60;;;2.22;;
39264;SDS011;42646;51.910;7.724;2023-03-20T11:30:48;5.22;;;2.17;;
39264;SDS011;42646;51.910;7.724;2023-03-20T11:36:03;5.13;;;2.00;;
39264;SDS011;42646;51.910;7.724;2023-03-20T11:38:42;4.90;;;2.05;;
39264;SDS011;42646;51.910;7.724;2023-03-20T11:41:16;6.40;;;2.40;;
39264;SDS011;42646;51.910;7.724;2023-03-20T11:43:45;5.28;;;2.03;;
39264;SDS011;42646;51.910;7.724;2023-03-20T11:46:13;5.00;;;2.17;;
39264;SDS011;42646;51.910;7.724;2023-03-20T11:48:41;6.25;;;2.10;;
39264;SDS011;42646;51.910;7.724;2023-03-20T11:51:13;5.85;;;2.40;;
39264;SDS011;42646;51.910;7.724;2023-03-20T11:53:53;5.35;;;2.40;;
39264;SDS011;42646;51.910;7.724;2023-03-20T11:56:27;5.15;;;2.20;;
39264;SDS011;42646;51.910;7.724;2023-03-20T11:58:58;5.15;;;2.35;;
39264;SDS011;42646;51.910;7.724;2023-03-20T12:01:36;4.55;;;1.95;;
39264;SDS011;42646;51.910;7.724;2023-03-20T12:04:10;4.38;;;2.13;;
39264;SDS011;42646;51.910;7.724;2023-03-20T12:06:43;5.68;;;2.40;;
39264;SDS011;42646;51.910;7.724;2023-03-20T12:12:12;6.45;;;2.75;;
39264;SDS011;42646;51.910;7.724;2023-03-20T12:14:49;5.45;;;3.10;;
39264;SDS011;42646;51.910;7.724;2023-03-20T12:17:34;6.88;;;2.92;;
39264;SDS011;42646;51.910;7.724;2023-03-20T12:20:13;7.15;;;2.95;;
39264;SDS011;42646;51.910;7.724;2023-03-20T12:22:53;6.95;;;2.80;;
39264;SDS011;42646;51.910;7.724;2023-03-20T12:25:26;5.80;;;2.75;;
39264;SDS011;42646;51.910;7.724;2023-03-20T12:28:01;7.00;;;3.08;;
39264;SDS011;42646;51.910;7.724;2023-03-20T12:31:02;5.60;;;3.22;;
39264;SDS011;42646;51.910;7.724;2023-03-20T12:33:39;6.55;;;2.60;;
39264;SDS011;42646;51.910;7.724;2023-03-20T12:36:13;7.78;;;3.47;;
39264;SDS011;42646;51.910;7.724;2023-03-20T12:38:45;6.40;;;3.10;;
39264;SDS011;42646;51.910;7.724;2023-03-20T12:41:14;7.45;;;2.95;;
39264;SDS011;42646;51.910;7.724;2023-03-20T12:43:58;10.48;;;3.30;;
39264;SDS011;42646;51.910;7.724;2023-03-20T12:46:40;7.78;;;3.50;;
39264;SDS011;42646;51.910;7.724;2023-03-20T12:49:15;9.48;;;4.50;;
39264;SDS011;42646;51.910;7.724;2023-03-20T12:51:54;7.63;;;3.78;;
39264;SDS011;42646;51.910;7.724;2023-03-20T12:54:55;8.43;;;4.50;;
39264;SDS011;42646;51.910;7.724;2023-03-20T12:57:34;7.65;;;4.20;;
39264;SDS011;42646;51.910;7.724;2023-03-20T13:00:09;7.45;;;4.10;;
39264;SDS011;42646;51.910;7.724;2023-03-20T13:02:48;8.40;;;4.03;;
39264;SDS011;42646;51.910;7.724;2023-03-20T13:05:26;6.95;;;3.65;;
39264;SDS011;42646;51.910;7.724;2023-03-20T13:08:08;8.70;;;3.72;;
39264;SDS011;42646;51.910;7.724;2023-03-20T13:10:47;9.45;;;4.03;;
39264;SDS011;42646;51.910;7.724;2023-03-20T13:13:25;7.72;;;4.35;;
39264;SDS011;42646;51.910;7.724;2023-03-20T13:16:02;7.18;;;3.70;;
39264;SDS011;42646;51.910;7.724;2023-03-20T13:18:44;7.00;;;3.50;;
39264;SDS011;42646;51.910;7.724;2023-03-20T13:21:22;6.80;;;3.30;;
39264;SDS011;42646;51.910;7.724;2023-03-20T13:23:55;13.10;;;3.92;;
39264;SDS011;42646;51.910;7.724;2023-03-20T13:26:42;6.35;;;3.15;;
39264;SDS011;42646;51.910;7.724;2023-03-20T13:29:18;9.07;;;3.92;;
39264;SDS011;42646;51.910;7.724;2023-03-20T13:31:56;6.72;;;3.65;;
39264;SDS011;42646;51.910;7.724;2023-03-20T13:34:36;6.47;;;3.60;;
39264;SDS011;42646;51.910;7.724;2023-03-20T13:37:14;6.50;;;3.53;;
39264;SDS011;42646;51.910;7.724;2023-03-20T13:39:55;7.70;;;3.25;;
39264;SDS011;42646;51.910;7.724;2023-03-20T13:42:31;6.57;;;3.10;;
39264;SDS011;42646;51.910;7.724;2023-03-20T13:45:04;5.93;;;3.40;;
39264;SDS011;42646;51.910;7.724;2023-03-20T13:47:45;6.40;;;3.60;;
39264;SDS011;42646;51.910;7.724;2023-03-20T13:50:22;8.32;;;4.20;;
39264;SDS011;42646;51.910;7.724;2023-03-20T13:53:00;8.88;;;4.50;;
39264;SDS011;42646;51.910;7.724;2023-03-20T13:55:38;10.13;;;4.85;;
39264;SDS011;42646;51.910;7.724;2023-03-20T14:01:29;6.65;;;4.50;;
39264;SDS011;42646;51.910;7.724;2023-03-20T14:04:08;10.80;;;5.13;;
39264;SDS011;42646;51.910;7.724;2023-03-20T14:06:43;6.75;;;4.55;;
39264;SDS011;42646;51.910;7.724;2023-03-20T14:09:27;8.73;;;4.63;;
39264;SDS011;42646;51.910;7.724;2023-03-20T14:11:59;7.35;;;4.25;;
39264;SDS011;42646;51.910;7.724;2023-03-20T14:14:30;7.45;;;4.40;;
39264;SDS011;42646;51.910;7.724;2023-03-20T14:17:05;10.00;;;4.50;;
39264;SDS011;42646;51.910;7.724;2023-03-20T14:19:38;8.00;;;4.28;;
39264;SDS011;42646;51.910;7.724;2023-03-20T14:22:08;7.78;;;4.00;;
39264;SDS011;42646;51.910;7.724;2023-03-20T14:24:44;6.45;;;4.30;;
39264;SDS011;42646;51.910;7.724;2023-03-20T14:27:21;6.55;;;3.80;;
39264;SDS011;42646;51.910;7.724;2023-03-20T14:33:29;7.00;;;3.83;;
39264;SDS011;42646;51.910;7.724;2023-03-20T14:36:10;7.38;;;3.83;;
39264;SDS011;42646;51.910;7.724;2023-03-20T14:38:48;7.57;;;4.05;;
39264;SDS011;42646;51.910;7.724;2023-03-20T14:41:22;7.93;;;4.22;;
39264;SDS011;42646;51.910;7.724;2023-03-20T14:44:02;6.60;;;3.90;;
39264;SDS011;42646;51.910;7.724;2023-03-20T14:46:46;9.07;;;4.43;;
39264;SDS011;42646;51.910;7.724;2023-03-20T14:49:23;8.18;;;4.55;;
39264;SDS011;42646;51.910;7.724;2023-03-20T14:52:02;10.57;;;5.32;;
39264;SDS011;42646;51.910;7.724;2023-03-20T14:54:54;8.23;;;5.20;;
39264;SDS011;42646;51.910;7.724;2023-03-20T14:57:26;9.25;;;5.35;;
39264;SDS011;42646;51.910;7.724;2023-03-20T15:00:16;6.97;;;4.68;;
39264;SDS011;42646;51.910;7.724;2023-03-20T15:02:47;8.98;;;5.38;;
39264;SDS011;42646;51.910;7.724;2023-03-20T15:05:21;8.68;;;5.53;;
39264;SDS011;42646;51.910;7.724;2023-03-20T15:10:51;7.28;;;5.22;;
39264;SDS011;42646;51.910;7.724;2023-03-20T15:13:21;8.43;;;5.45;;
39264;SDS011;42646;51.910;7.724;2023-03-20T15:15:52;9.40;;;4.70;;
39264;SDS011;42646;51.910;7.724;2023-03-20T15:18:34;6.32;;;4.32;;
39264;SDS011;42646;51.910;7.724;2023-03-20T15:21:08;8.73;;;4.40;;
39264;SDS011;42646;51.910;7.724;2023-03-20T15:23:40;7.38;;;4.88;;
39264;SDS011;42646;51.910;7.724;2023-03-20T15:26:10;8.50;;;4.20;;
39264;SDS011;42646;51.910;7.724;2023-03-20T15:28:41;5.82;;;3.50;;
39264;SDS011;42646;51.910;7.724;2023-03-20T15:31:14;8.25;;;4.25;;
39264;SDS011;42646;51.910;7.724;2023-03-20T15:33:49;8.05;;;4.05;;
39264;SDS011;42646;51.910;7.724;2023-03-20T15:36:18;7.40;;;3.97;;
39264;SDS011;42646;51.910;7.724;2023-03-20T15:41:26;6.95;;;3.63;;
39264;SDS011;42646;51.910;7.724;2023-03-20T15:44:01;6.75;;;3.83;;
39264;SDS011;42646;51.910;7.724;2023-03-20T15:46:31;6.03;;;3.40;;
39264;SDS011;42646;51.910;7.724;2023-03-20T15:48:59;6.28;;;3.53;;
39264;SDS011;42646;51.910;7.724;2023-03-20T15:51:27;6.40;;;3.50;;
39264;SDS011;42646;51.910;7.724;2023-03-20T15:53:54;6.47;;;3.42;;